sensor_id;sensor_type;location;lat;lon;timestamp;temperature;humidity
26107;DHT22;13866;50.748;12.630;2022-08-19T00:01:45;18.60;99.90
26107;DHT22;13866;50.748;12.630;2022-08-19T00:04:13;18.60;99.90
26107;DHT22;13866;50.748;12.630;2022-08-19T00:06:41;18.60;99.90
26107;DHT22;13866;50.748;12.630;2022-08-19T00:09:09;18.60;99.90
26107;DHT22;13866;50.748;12.630;2022-08-19T00:11:35;18.60;99.90
26107;DHT22;13866;50.748;12.630;2022-08-19T00:14:04;18.50;99.90
26107;DHT22;13866;50.748;12.630;2022-08-19T00:16:29;18.60;99.90
26107;DHT22;13866;50.748;12.630;2022-08-19T00:18:55;18.60;99.90
26107;DHT22;13866;50.748;12.630;2022-08-19T00:21:21;18.50;99.90
26107;DHT22;13866;50.748;12.630;2022-08-19T00:23:47;18.50;99.90
26107;DHT22;13866;50.748;12.630;2022-08-19T00:26:13;18.50;99.90
26107;DHT22;13866;50.748;12.630;2022-08-19T00:28:38;18.50;99.90
26107;DHT22;13866;50.748;12.630;2022-08-19T00:31:06;18.50;99.90
26107;DHT22;13866;50.748;12.630;2022-08-19T00:33:32;18.40;99.90
26107;DHT22;13866;50.748;12.630;2022-08-19T00:35:59;18.50;99.90
26107;DHT22;13866;50.748;12.630;2022-08-19T00:38:25;18.50;99.90
26107;DHT22;13866;50.748;12.630;2022-08-19T00:40:50;18.50;99.90
26107;DHT22;13866;50.748;12.630;2022-08-19T00:43:21;18.40;99.90
26107;DHT22;13866;50.748;12.630;2022-08-19T00:45:47;18.40;99.90
26107;DHT22;13866;50.748;12.630;2022-08-19T00:48:13;18.40;99.90
26107;DHT22;13866;50.748;12.630;2022-08-19T00:50:40;18.40;99.90
26107;DHT22;13866;50.748;12.630;2022-08-19T00:53:09;18.40;99.90
26107;DHT22;13866;50.748;12.630;2022-08-19T00:55:34;18.40;99.90
26107;DHT22;13866;50.748;12.630;2022-08-19T00:58:03;18.40;99.90
26107;DHT22;13866;50.748;12.630;2022-08-19T01:00:31;18.40;99.90
26107;DHT22;13866;50.748;12.630;2022-08-19T01:02:57;18.40;99.90
26107;DHT22;13866;50.748;12.630;2022-08-19T01:05:26;18.40;99.90
26107;DHT22;13866;50.748;12.630;2022-08-19T01:07:56;18.40;99.90
26107;DHT22;13866;50.748;12.630;2022-08-19T01:10:26;18.40;99.90
26107;DHT22;13866;50.748;12.630;2022-08-19T01:12:52;18.40;99.90
26107;DHT22;13866;50.748;12.630;2022-08-19T01:15:23;18.50;99.90
26107;DHT22;13866;50.748;12.630;2022-08-19T01:17:50;18.50;99.90
26107;DHT22;13866;50.748;12.630;2022-08-19T01:20:19;18.40;99.90
26107;DHT22;13866;50.748;12.630;2022-08-19T01:23:03;18.40;99.90
26107;DHT22;13866;50.748;12.630;2022-08-19T01:25:45;18.40;99.90
26107;DHT22;13866;50.748;12.630;2022-08-19T01:28:20;18.40;99.90
26107;DHT22;13866;50.748;12.630;2022-08-19T01:30:47;18.40;99.90
26107;DHT22;13866;50.748;12.630;2022-08-19T01:33:13;18.40;99.90
26107;DHT22;13866;50.748;12.630;2022-08-19T01:35:39;18.40;99.90
26107;DHT22;13866;50.748;12.630;2022-08-19T01:38:07;18.40;99.90
26107;DHT22;13866;50.748;12.630;2022-08-19T01:40:37;18.40;99.90
26107;DHT22;13866;50.748;12.630;2022-08-19T01:43:03;18.30;99.90
26107;DHT22;13866;50.748;12.630;2022-08-19T01:45:31;18.30;99.90
26107;DHT22;13866;50.748;12.630;2022-08-19T01:47:58;18.30;99.90
26107;DHT22;13866;50.748;12.630;2022-08-19T01:50:24;18.30;99.90
26107;DHT22;13866;50.748;12.630;2022-08-19T01:52:51;18.30;99.90
26107;DHT22;13866;50.748;12.630;2022-08-19T01:55:18;18.30;99.90
26107;DHT22;13866;50.748;12.630;2022-08-19T01:57:49;18.30;99.90
26107;DHT22;13866;50.748;12.630;2022-08-19T02:00:18;18.30;99.90
26107;DHT22;13866;50.748;12.630;2022-08-19T02:02:44;18.30;99.90
26107;DHT22;13866;50.748;12.630;2022-08-19T02:05:11;18.30;99.90
26107;DHT22;13866;50.748;12.630;2022-08-19T02:07:38;18.30;99.90
26107;DHT22;13866;50.748;12.630;2022-08-19T02:10:12;18.30;99.90
26107;DHT22;13866;50.748;12.630;2022-08-19T02:12:38;18.30;99.90
26107;DHT22;13866;50.748;12.630;2022-08-19T02:15:04;18.40;99.90
26107;DHT22;13866;50.748;12.630;2022-08-19T02:17:31;18.40;99.90
26107;DHT22;13866;50.748;12.630;2022-08-19T02:19:57;18.30;99.90
26107;DHT22;13866;50.748;12.630;2022-08-19T02:22:24;18.40;99.90
26107;DHT22;13866;50.748;12.630;2022-08-19T02:24:52;18.40;99.90
26107;DHT22;13866;50.748;12.630;2022-08-19T02:27:17;18.40;99.90
26107;DHT22;13866;50.748;12.630;2022-08-19T02:29:43;18.40;99.90
26107;DHT22;13866;50.748;12.630;2022-08-19T02:32:10;18.40;99.90
26107;DHT22;13866;50.748;12.630;2022-08-19T02:34:36;18.40;99.90
26107;DHT22;13866;50.748;12.630;2022-08-19T02:37:01;18.40;99.90
26107;DHT22;13866;50.748;12.630;2022-08-19T02:39:27;18.40;99.90
26107;DHT22;13866;50.748;12.630;2022-08-19T02:41:52;18.30;99.90
26107;DHT22;13866;50.748;12.630;2022-08-19T02:44:18;18.40;99.90
26107;DHT22;13866;50.748;12.630;2022-08-19T02:46:45;18.40;99.90
26107;DHT22;13866;50.748;12.630;2022-08-19T02:49:11;18.40;99.90
26107;DHT22;13866;50.748;12.630;2022-08-19T02:51:39;18.40;99.90
26107;DHT22;13866;50.748;12.630;2022-08-19T02:54:06;18.40;99.90
26107;DHT22;13866;50.748;12.630;2022-08-19T02:56:38;18.40;99.90
26107;DHT22;13866;50.748;12.630;2022-08-19T02:59:05;18.50;99.90
26107;DHT22;13866;50.748;12.630;2022-08-19T03:01:33;18.50;99.90
26107;DHT22;13866;50.748;12.630;2022-08-19T03:04:00;18.50;99.90
26107;DHT22;13866;50.748;12.630;2022-08-19T03:06:27;18.50;99.90
26107;DHT22;13866;50.748;12.630;2022-08-19T03:08:53;18.50;99.90
26107;DHT22;13866;50.748;12.630;2022-08-19T03:11:28;18.50;99.90
26107;DHT22;13866;50.748;12.630;2022-08-19T03:13:55;18.50;99.90
26107;DHT22;13866;50.748;12.630;2022-08-19T03:16:23;18.50;99.90
26107;DHT22;13866;50.748;12.630;2022-08-19T03:18:50;18.50;99.90
26107;DHT22;13866;50.748;12.630;2022-08-19T03:21:17;18.50;99.90
26107;DHT22;13866;50.748;12.630;2022-08-19T03:23:43;18.50;99.90
26107;DHT22;13866;50.748;12.630;2022-08-19T03:26:09;18.50;99.90
26107;DHT22;13866;50.748;12.630;2022-08-19T03:28:35;18.50;99.90
26107;DHT22;13866;50.748;12.630;2022-08-19T03:31:06;18.50;99.90
26107;DHT22;13866;50.748;12.630;2022-08-19T03:33:34;18.50;99.90
26107;DHT22;13866;50.748;12.630;2022-08-19T03:36:09;18.50;99.90
26107;DHT22;13866;50.748;12.630;2022-08-19T03:38:47;18.50;99.90
26107;DHT22;13866;50.748;12.630;2022-08-19T03:41:19;18.50;99.90
26107;DHT22;13866;50.748;12.630;2022-08-19T03:43:46;18.50;99.90
26107;DHT22;13866;50.748;12.630;2022-08-19T03:46:17;18.50;99.90
26107;DHT22;13866;50.748;12.630;2022-08-19T03:48:46;18.50;99.90
26107;DHT22;13866;50.748;12.630;2022-08-19T03:51:26;18.50;99.90
26107;DHT22;13866;50.748;12.630;2022-08-19T03:53:54;18.50;99.90
26107;DHT22;13866;50.748;12.630;2022-08-19T03:56:21;18.50;99.90
26107;DHT22;13866;50.748;12.630;2022-08-19T03:58:47;18.50;99.90
26107;DHT22;13866;50.748;12.630;2022-08-19T04:01:16;18.50;99.90
26107;DHT22;13866;50.748;12.630;2022-08-19T04:03:42;18.50;99.90
26107;DHT22;13866;50.748;12.630;2022-08-19T04:06:14;18.50;99.90
26107;DHT22;13866;50.748;12.630;2022-08-19T04:08:41;18.50;99.90
26107;DHT22;13866;50.748;12.630;2022-08-19T04:11:10;18.50;99.90
26107;DHT22;13866;50.748;12.630;2022-08-19T04:13:36;18.50;99.90
26107;DHT22;13866;50.748;12.630;2022-08-19T04:16:01;18.50;99.90
26107;DHT22;13866;50.748;12.630;2022-08-19T04:18:28;18.50;99.90
26107;DHT22;13866;50.748;12.630;2022-08-19T04:20:55;18.50;99.90
26107;DHT22;13866;50.748;12.630;2022-08-19T04:23:22;18.50;99.90
26107;DHT22;13866;50.748;12.630;2022-08-19T04:25:48;18.50;99.90
26107;DHT22;13866;50.748;12.630;2022-08-19T04:28:13;18.50;99.90
26107;DHT22;13866;50.748;12.630;2022-08-19T04:30:45;18.50;99.90
26107;DHT22;13866;50.748;12.630;2022-08-19T04:33:12;18.60;99.90
26107;DHT22;13866;50.748;12.630;2022-08-19T04:35:40;18.50;99.90
26107;DHT22;13866;50.748;12.630;2022-08-19T04:38:06;18.50;99.90
26107;DHT22;13866;50.748;12.630;2022-08-19T04:40:31;18.50;99.90
26107;DHT22;13866;50.748;12.630;2022-08-19T04:43:16;18.60;99.90
26107;DHT22;13866;50.748;12.630;2022-08-19T04:45:45;18.60;99.90
26107;DHT22;13866;50.748;12.630;2022-08-19T04:48:11;18.50;99.90
26107;DHT22;13866;50.748;12.630;2022-08-19T04:50:42;18.60;99.90
26107;DHT22;13866;50.748;12.630;2022-08-19T04:53:08;18.50;99.90
26107;DHT22;13866;50.748;12.630;2022-08-19T04:55:34;18.50;99.90
26107;DHT22;13866;50.748;12.630;2022-08-19T04:58:00;18.50;99.90
26107;DHT22;13866;50.748;12.630;2022-08-19T05:00:27;18.50;99.90
26107;DHT22;13866;50.748;12.630;2022-08-19T05:02:53;18.50;99.90
26107;DHT22;13866;50.748;12.630;2022-08-19T05:05:18;18.50;99.90
26107;DHT22;13866;50.748;12.630;2022-08-19T05:07:45;18.50;99.90
26107;DHT22;13866;50.748;12.630;2022-08-19T05:10:10;18.50;99.90
26107;DHT22;13866;50.748;12.630;2022-08-19T05:12:36;18.40;99.90
26107;DHT22;13866;50.748;12.630;2022-08-19T05:15:04;18.40;99.90
26107;DHT22;13866;50.748;12.630;2022-08-19T05:17:31;18.40;99.90
26107;DHT22;13866;50.748;12.630;2022-08-19T05:19:57;18.50;99.90
26107;DHT22;13866;50.748;12.630;2022-08-19T05:22:44;18.40;99.90
26107;DHT22;13866;50.748;12.630;2022-08-19T05:25:14;18.40;99.90
26107;DHT22;13866;50.748;12.630;2022-08-19T05:27:43;18.40;99.90
26107;DHT22;13866;50.748;12.630;2022-08-19T05:30:10;18.40;99.90
26107;DHT22;13866;50.748;12.630;2022-08-19T05:32:36;18.40;99.90
26107;DHT22;13866;50.748;12.630;2022-08-19T05:35:03;18.40;99.90
26107;DHT22;13866;50.748;12.630;2022-08-19T05:37:28;18.40;99.90
26107;DHT22;13866;50.748;12.630;2022-08-19T05:39:54;18.50;99.90
26107;DHT22;13866;50.748;12.630;2022-08-19T05:42:20;18.40;99.90
26107;DHT22;13866;50.748;12.630;2022-08-19T05:44:48;18.40;99.90
26107;DHT22;13866;50.748;12.630;2022-08-19T05:47:14;18.40;99.90
26107;DHT22;13866;50.748;12.630;2022-08-19T05:49:41;18.40;99.90
26107;DHT22;13866;50.748;12.630;2022-08-19T05:52:10;18.50;99.90
26107;DHT22;13866;50.748;12.630;2022-08-19T05:54:37;18.50;99.90
26107;DHT22;13866;50.748;12.630;2022-08-19T05:57:05;18.50;99.90
26107;DHT22;13866;50.748;12.630;2022-08-19T05:59:31;18.60;99.90
26107;DHT22;13866;50.748;12.630;2022-08-19T06:01:56;18.50;99.90
26107;DHT22;13866;50.748;12.630;2022-08-19T06:04:23;18.50;99.90
26107;DHT22;13866;50.748;12.630;2022-08-19T06:06:50;18.60;99.90
26107;DHT22;13866;50.748;12.630;2022-08-19T06:09:17;18.60;99.90
26107;DHT22;13866;50.748;12.630;2022-08-19T06:11:46;18.60;99.90
26107;DHT22;13866;50.748;12.630;2022-08-19T06:14:15;18.60;99.90
26107;DHT22;13866;50.748;12.630;2022-08-19T06:16:42;18.50;99.90
26107;DHT22;13866;50.748;12.630;2022-08-19T06:19:11;18.50;99.90
26107;DHT22;13866;50.748;12.630;2022-08-19T06:21:39;18.60;99.90
26107;DHT22;13866;50.748;12.630;2022-08-19T06:24:09;18.60;99.90
26107;DHT22;13866;50.748;12.630;2022-08-19T06:26:36;18.60;99.90
26107;DHT22;13866;50.748;12.630;2022-08-19T06:29:03;18.60;99.90
26107;DHT22;13866;50.748;12.630;2022-08-19T06:31:30;18.60;99.90
26107;DHT22;13866;50.748;12.630;2022-08-19T06:33:58;18.60;99.90
26107;DHT22;13866;50.748;12.630;2022-08-19T06:36:28;18.60;99.90
26107;DHT22;13866;50.748;12.630;2022-08-19T06:39:03;18.60;99.90
26107;DHT22;13866;50.748;12.630;2022-08-19T06:41:29;18.60;99.90
26107;DHT22;13866;50.748;12.630;2022-08-19T06:43:56;18.60;99.90
26107;DHT22;13866;50.748;12.630;2022-08-19T06:46:22;18.70;99.90
26107;DHT22;13866;50.748;12.630;2022-08-19T06:48:48;18.70;99.90
26107;DHT22;13866;50.748;12.630;2022-08-19T06:51:16;18.70;99.90
26107;DHT22;13866;50.748;12.630;2022-08-19T06:53:45;18.60;99.90
26107;DHT22;13866;50.748;12.630;2022-08-19T06:56:13;18.60;99.90
26107;DHT22;13866;50.748;12.630;2022-08-19T06:58:40;18.60;99.90
26107;DHT22;13866;50.748;12.630;2022-08-19T07:01:06;18.70;99.90
26107;DHT22;13866;50.748;12.630;2022-08-19T07:03:34;18.70;99.90
26107;DHT22;13866;50.748;12.630;2022-08-19T07:06:08;18.70;99.90
26107;DHT22;13866;50.748;12.630;2022-08-19T07:14:27;18.70;99.90
26107;DHT22;13866;50.748;12.630;2022-08-19T07:16:55;18.60;99.90
26107;DHT22;13866;50.748;12.630;2022-08-19T07:19:22;18.60;99.90
26107;DHT22;13866;50.748;12.630;2022-08-19T07:21:49;18.60;99.90
26107;DHT22;13866;50.748;12.630;2022-08-19T07:24:18;18.60;99.90
26107;DHT22;13866;50.748;12.630;2022-08-19T07:26:44;18.60;99.90
26107;DHT22;13866;50.748;12.630;2022-08-19T07:29:11;18.70;99.90
26107;DHT22;13866;50.748;12.630;2022-08-19T07:31:36;18.70;99.90
26107;DHT22;13866;50.748;12.630;2022-08-19T07:34:08;18.70;99.90
26107;DHT22;13866;50.748;12.630;2022-08-19T07:36:36;18.70;99.90
26107;DHT22;13866;50.748;12.630;2022-08-19T07:39:13;18.70;99.90
26107;DHT22;13866;50.748;12.630;2022-08-19T07:41:39;18.60;99.90
26107;DHT22;13866;50.748;12.630;2022-08-19T07:44:06;18.60;99.90
26107;DHT22;13866;50.748;12.630;2022-08-19T07:46:38;18.60;99.90
26107;DHT22;13866;50.748;12.630;2022-08-19T07:49:05;18.60;99.90
26107;DHT22;13866;50.748;12.630;2022-08-19T07:51:32;18.60;99.90
26107;DHT22;13866;50.748;12.630;2022-08-19T07:53:57;18.60;99.90
26107;DHT22;13866;50.748;12.630;2022-08-19T07:56:24;18.50;99.90
26107;DHT22;13866;50.748;12.630;2022-08-19T07:58:51;18.60;99.90
26107;DHT22;13866;50.748;12.630;2022-08-19T08:01:24;18.60;99.90
26107;DHT22;13866;50.748;12.630;2022-08-19T08:03:52;18.60;99.90
26107;DHT22;13866;50.748;12.630;2022-08-19T08:06:37;18.60;99.90
26107;DHT22;13866;50.748;12.630;2022-08-19T08:09:28;18.60;99.90
26107;DHT22;13866;50.748;12.630;2022-08-19T08:11:57;18.60;99.90
26107;DHT22;13866;50.748;12.630;2022-08-19T08:14:32;18.60;99.90
26107;DHT22;13866;50.748;12.630;2022-08-19T08:16:59;18.60;99.90
26107;DHT22;13866;50.748;12.630;2022-08-19T08:19:26;18.70;99.90
26107;DHT22;13866;50.748;12.630;2022-08-19T08:21:57;18.70;99.90
26107;DHT22;13866;50.748;12.630;2022-08-19T08:24:24;18.70;99.90
26107;DHT22;13866;50.748;12.630;2022-08-19T08:26:49;18.80;99.90
26107;DHT22;13866;50.748;12.630;2022-08-19T08:29:15;18.80;99.90
26107;DHT22;13866;50.748;12.630;2022-08-19T08:31:42;18.80;99.90
26107;DHT22;13866;50.748;12.630;2022-08-19T08:34:09;18.90;99.90
26107;DHT22;13866;50.748;12.630;2022-08-19T08:36:43;18.80;99.90
26107;DHT22;13866;50.748;12.630;2022-08-19T08:39:12;18.90;99.90
26107;DHT22;13866;50.748;12.630;2022-08-19T08:41:53;18.90;99.90
26107;DHT22;13866;50.748;12.630;2022-08-19T08:44:27;18.90;99.90
26107;DHT22;13866;50.748;12.630;2022-08-19T08:47:09;18.90;99.90
26107;DHT22;13866;50.748;12.630;2022-08-19T08:50:12;18.90;99.90
26107;DHT22;13866;50.748;12.630;2022-08-19T08:52:45;19.00;99.90
26107;DHT22;13866;50.748;12.630;2022-08-19T08:55:15;19.00;99.90
26107;DHT22;13866;50.748;12.630;2022-08-19T09:00:34;19.10;99.90
26107;DHT22;13866;50.748;12.630;2022-08-19T09:03:02;19.00;99.90
26107;DHT22;13866;50.748;12.630;2022-08-19T09:05:49;19.00;99.90
26107;DHT22;13866;50.748;12.630;2022-08-19T09:08:32;18.90;99.90
26107;DHT22;13866;50.748;12.630;2022-08-19T09:11:06;18.90;99.90
26107;DHT22;13866;50.748;12.630;2022-08-19T09:14:27;18.90;99.90
26107;DHT22;13866;50.748;12.630;2022-08-19T09:16:43;18.90;99.90
26107;DHT22;13866;50.748;12.630;2022-08-19T09:19:08;18.80;99.90
26107;DHT22;13866;50.748;12.630;2022-08-19T09:21:34;18.80;99.90
26107;DHT22;13866;50.748;12.630;2022-08-19T09:24:04;18.80;99.90
26107;DHT22;13866;50.748;12.630;2022-08-19T09:26:31;18.90;99.90
26107;DHT22;13866;50.748;12.630;2022-08-19T09:28:57;19.00;99.90
26107;DHT22;13866;50.748;12.630;2022-08-19T09:31:27;19.10;99.90
26107;DHT22;13866;50.748;12.630;2022-08-19T09:33:53;19.10;99.90
26107;DHT22;13866;50.748;12.630;2022-08-19T09:36:23;19.20;99.90
26107;DHT22;13866;50.748;12.630;2022-08-19T09:38:50;19.20;99.90
26107;DHT22;13866;50.748;12.630;2022-08-19T09:41:19;19.20;99.90
26107;DHT22;13866;50.748;12.630;2022-08-19T09:43:47;19.30;99.90
26107;DHT22;13866;50.748;12.630;2022-08-19T09:46:13;19.30;99.90
26107;DHT22;13866;50.748;12.630;2022-08-19T09:48:39;19.40;99.90
26107;DHT22;13866;50.748;12.630;2022-08-19T09:53:34;19.40;99.90
26107;DHT22;13866;50.748;12.630;2022-08-19T09:56:00;19.40;99.90
26107;DHT22;13866;50.748;12.630;2022-08-19T09:58:25;19.30;99.90
26107;DHT22;13866;50.748;12.630;2022-08-19T10:00:54;19.30;99.90
26107;DHT22;13866;50.748;12.630;2022-08-19T10:03:20;19.30;99.90
26107;DHT22;13866;50.748;12.630;2022-08-19T10:05:45;19.20;99.90
26107;DHT22;13866;50.748;12.630;2022-08-19T10:08:20;19.10;99.90
26107;DHT22;13866;50.748;12.630;2022-08-19T10:10:47;19.10;99.90
26107;DHT22;13866;50.748;12.630;2022-08-19T10:13:14;19.10;99.90
26107;DHT22;13866;50.748;12.630;2022-08-19T10:15:40;19.10;99.90
26107;DHT22;13866;50.748;12.630;2022-08-19T10:18:06;19.20;99.90
26107;DHT22;13866;50.748;12.630;2022-08-19T10:20:32;19.30;99.90
26107;DHT22;13866;50.748;12.630;2022-08-19T10:22:58;19.40;99.90
26107;DHT22;13866;50.748;12.630;2022-08-19T10:25:26;19.30;99.90
26107;DHT22;13866;50.748;12.630;2022-08-19T10:27:52;19.20;99.90
26107;DHT22;13866;50.748;12.630;2022-08-19T10:30:18;19.10;99.90
26107;DHT22;13866;50.748;12.630;2022-08-19T10:32:44;19.10;99.90
26107;DHT22;13866;50.748;12.630;2022-08-19T10:35:12;19.00;99.90
26107;DHT22;13866;50.748;12.630;2022-08-19T10:37:38;18.90;99.90
26107;DHT22;13866;50.748;12.630;2022-08-19T10:40:06;18.80;99.90
26107;DHT22;13866;50.748;12.630;2022-08-19T10:42:33;18.80;99.90
26107;DHT22;13866;50.748;12.630;2022-08-19T10:44:58;18.80;99.90
26107;DHT22;13866;50.748;12.630;2022-08-19T10:47:24;18.70;99.90
26107;DHT22;13866;50.748;12.630;2022-08-19T10:49:49;18.70;99.90
26107;DHT22;13866;50.748;12.630;2022-08-19T10:52:33;18.60;99.90
26107;DHT22;13866;50.748;12.630;2022-08-19T10:55:04;18.50;99.90
26107;DHT22;13866;50.748;12.630;2022-08-19T10:57:49;18.50;99.90
26107;DHT22;13866;50.748;12.630;2022-08-19T11:00:15;18.50;99.90
26107;DHT22;13866;50.748;12.630;2022-08-19T11:02:41;18.50;99.90
26107;DHT22;13866;50.748;12.630;2022-08-19T11:05:07;18.40;99.90
26107;DHT22;13866;50.748;12.630;2022-08-19T11:07:36;18.40;99.90
26107;DHT22;13866;50.748;12.630;2022-08-19T11:10:03;18.30;99.90
26107;DHT22;13866;50.748;12.630;2022-08-19T11:12:29;18.30;99.90
26107;DHT22;13866;50.748;12.630;2022-08-19T11:14:54;18.30;99.90
26107;DHT22;13866;50.748;12.630;2022-08-19T11:17:20;18.20;99.90
26107;DHT22;13866;50.748;12.630;2022-08-19T11:19:48;18.20;99.90
26107;DHT22;13866;50.748;12.630;2022-08-19T11:22:14;18.20;99.90
26107;DHT22;13866;50.748;12.630;2022-08-19T11:24:40;18.20;99.90
26107;DHT22;13866;50.748;12.630;2022-08-19T11:27:08;18.10;99.90
26107;DHT22;13866;50.748;12.630;2022-08-19T11:29:40;18.10;99.90
26107;DHT22;13866;50.748;12.630;2022-08-19T11:32:08;18.00;99.90
26107;DHT22;13866;50.748;12.630;2022-08-19T11:34:35;18.10;99.90
26107;DHT22;13866;50.748;12.630;2022-08-19T11:37:01;18.00;99.90
26107;DHT22;13866;50.748;12.630;2022-08-19T11:39:30;17.90;99.90
26107;DHT22;13866;50.748;12.630;2022-08-19T11:41:57;17.90;99.90
26107;DHT22;13866;50.748;12.630;2022-08-19T11:44:23;17.90;99.90
26107;DHT22;13866;50.748;12.630;2022-08-19T11:46:49;18.00;99.90
26107;DHT22;13866;50.748;12.630;2022-08-19T11:49:16;18.00;99.90
26107;DHT22;13866;50.748;12.630;2022-08-19T11:51:44;18.00;99.90
26107;DHT22;13866;50.748;12.630;2022-08-19T11:54:11;17.90;99.90
26107;DHT22;13866;50.748;12.630;2022-08-19T11:56:38;17.80;99.90
26107;DHT22;13866;50.748;12.630;2022-08-19T11:59:03;17.80;99.90
26107;DHT22;13866;50.748;12.630;2022-08-19T12:01:29;17.80;99.90
26107;DHT22;13866;50.748;12.630;2022-08-19T12:03:56;17.70;99.90
26107;DHT22;13866;50.748;12.630;2022-08-19T12:06:25;17.70;99.90
26107;DHT22;13866;50.748;12.630;2022-08-19T12:08:58;17.80;99.90
26107;DHT22;13866;50.748;12.630;2022-08-19T12:11:24;17.80;99.90
26107;DHT22;13866;50.748;12.630;2022-08-19T12:13:50;17.90;99.90
26107;DHT22;13866;50.748;12.630;2022-08-19T12:16:22;18.00;99.90
26107;DHT22;13866;50.748;12.630;2022-08-19T12:18:49;18.10;99.90
26107;DHT22;13866;50.748;12.630;2022-08-19T12:21:21;18.20;99.90
26107;DHT22;13866;50.748;12.630;2022-08-19T12:23:49;18.10;99.90
26107;DHT22;13866;50.748;12.630;2022-08-19T12:26:15;18.20;99.90
26107;DHT22;13866;50.748;12.630;2022-08-19T12:28:41;18.20;99.90
26107;DHT22;13866;50.748;12.630;2022-08-19T12:31:07;18.30;99.90
26107;DHT22;13866;50.748;12.630;2022-08-19T12:33:33;18.30;99.90
26107;DHT22;13866;50.748;12.630;2022-08-19T12:36:07;18.30;99.90
26107;DHT22;13866;50.748;12.630;2022-08-19T12:38:34;18.20;99.90
26107;DHT22;13866;50.748;12.630;2022-08-19T12:41:03;18.20;99.90
26107;DHT22;13866;50.748;12.630;2022-08-19T12:43:32;18.20;99.90
26107;DHT22;13866;50.748;12.630;2022-08-19T12:45:57;18.20;99.90
26107;DHT22;13866;50.748;12.630;2022-08-19T12:48:23;18.30;99.90
26107;DHT22;13866;50.748;12.630;2022-08-19T12:50:49;18.30;99.90
26107;DHT22;13866;50.748;12.630;2022-08-19T12:53:15;18.40;99.90
26107;DHT22;13866;50.748;12.630;2022-08-19T12:55:41;18.40;99.90
26107;DHT22;13866;50.748;12.630;2022-08-19T12:58:07;18.50;99.90
26107;DHT22;13866;50.748;12.630;2022-08-19T13:00:33;18.60;99.90
26107;DHT22;13866;50.748;12.630;2022-08-19T13:02:59;18.50;99.90
26107;DHT22;13866;50.748;12.630;2022-08-19T13:05:28;18.60;99.90
26107;DHT22;13866;50.748;12.630;2022-08-19T13:07:55;18.50;99.90
26107;DHT22;13866;50.748;12.630;2022-08-19T13:10:23;18.50;99.90
26107;DHT22;13866;50.748;12.630;2022-08-19T13:12:51;18.60;99.90
26107;DHT22;13866;50.748;12.630;2022-08-19T13:15:18;18.60;99.90
26107;DHT22;13866;50.748;12.630;2022-08-19T13:17:48;18.60;99.90
26107;DHT22;13866;50.748;12.630;2022-08-19T13:20:15;18.60;99.90
26107;DHT22;13866;50.748;12.630;2022-08-19T13:22:42;18.60;99.90
26107;DHT22;13866;50.748;12.630;2022-08-19T13:25:08;18.60;99.90
26107;DHT22;13866;50.748;12.630;2022-08-19T13:27:35;18.70;99.90
26107;DHT22;13866;50.748;12.630;2022-08-19T13:30:02;18.70;99.90
26107;DHT22;13866;50.748;12.630;2022-08-19T13:32:46;18.70;99.90
26107;DHT22;13866;50.748;12.630;2022-08-19T13:35:31;18.70;99.90
26107;DHT22;13866;50.748;12.630;2022-08-19T13:37:56;18.70;99.90
26107;DHT22;13866;50.748;12.630;2022-08-19T13:40:24;18.70;99.90
26107;DHT22;13866;50.748;12.630;2022-08-19T13:42:52;18.80;99.90
26107;DHT22;13866;50.748;12.630;2022-08-19T13:45:21;18.80;99.90
26107;DHT22;13866;50.748;12.630;2022-08-19T13:47:49;18.90;99.90
26107;DHT22;13866;50.748;12.630;2022-08-19T13:50:17;18.90;99.90
26107;DHT22;13866;50.748;12.630;2022-08-19T13:52:43;18.90;99.90
26107;DHT22;13866;50.748;12.630;2022-08-19T13:55:10;19.00;99.90
26107;DHT22;13866;50.748;12.630;2022-08-19T13:57:36;19.00;99.90
26107;DHT22;13866;50.748;12.630;2022-08-19T14:00:12;19.00;99.90
26107;DHT22;13866;50.748;12.630;2022-08-19T14:02:40;19.00;99.90
26107;DHT22;13866;50.748;12.630;2022-08-19T14:05:08;19.00;99.90
26107;DHT22;13866;50.748;12.630;2022-08-19T14:07:35;19.00;99.90
26107;DHT22;13866;50.748;12.630;2022-08-19T14:10:02;18.90;99.90
26107;DHT22;13866;50.748;12.630;2022-08-19T14:12:28;18.80;99.90
26107;DHT22;13866;50.748;12.630;2022-08-19T14:14:53;18.80;99.90
26107;DHT22;13866;50.748;12.630;2022-08-19T14:17:19;18.80;99.90
26107;DHT22;13866;50.748;12.630;2022-08-19T14:19:44;18.80;99.90
26107;DHT22;13866;50.748;12.630;2022-08-19T14:22:10;18.70;99.90
26107;DHT22;13866;50.748;12.630;2022-08-19T14:24:37;18.70;99.90
26107;DHT22;13866;50.748;12.630;2022-08-19T14:27:05;18.80;99.90
26107;DHT22;13866;50.748;12.630;2022-08-19T14:29:31;18.80;99.90
26107;DHT22;13866;50.748;12.630;2022-08-19T14:31:56;18.90;99.90
26107;DHT22;13866;50.748;12.630;2022-08-19T14:34:24;18.90;99.90
26107;DHT22;13866;50.748;12.630;2022-08-19T14:36:50;19.00;99.90
26107;DHT22;13866;50.748;12.630;2022-08-19T14:39:15;19.10;99.90
26107;DHT22;13866;50.748;12.630;2022-08-19T14:41:41;19.20;99.90
26107;DHT22;13866;50.748;12.630;2022-08-19T14:44:07;19.30;99.90
26107;DHT22;13866;50.748;12.630;2022-08-19T14:46:35;19.20;99.90
26107;DHT22;13866;50.748;12.630;2022-08-19T14:49:01;19.20;99.90
26107;DHT22;13866;50.748;12.630;2022-08-19T14:51:26;19.30;99.90
26107;DHT22;13866;50.748;12.630;2022-08-19T14:53:52;19.20;99.90
26107;DHT22;13866;50.748;12.630;2022-08-19T14:56:23;19.20;99.90
26107;DHT22;13866;50.748;12.630;2022-08-19T14:58:49;19.20;99.90
26107;DHT22;13866;50.748;12.630;2022-08-19T15:01:21;19.20;99.90
26107;DHT22;13866;50.748;12.630;2022-08-19T15:03:47;19.20;99.90
26107;DHT22;13866;50.748;12.630;2022-08-19T15:06:13;19.10;99.90
26107;DHT22;13866;50.748;12.630;2022-08-19T15:08:41;19.20;99.90
26107;DHT22;13866;50.748;12.630;2022-08-19T15:11:10;19.20;99.90
26107;DHT22;13866;50.748;12.630;2022-08-19T15:13:36;19.10;99.90
26107;DHT22;13866;50.748;12.630;2022-08-19T15:16:02;19.10;99.90
26107;DHT22;13866;50.748;12.630;2022-08-19T15:18:28;19.10;99.90
26107;DHT22;13866;50.748;12.630;2022-08-19T15:20:53;19.10;99.90
26107;DHT22;13866;50.748;12.630;2022-08-19T15:23:20;19.10;99.90
26107;DHT22;13866;50.748;12.630;2022-08-19T15:25:46;19.10;99.90
26107;DHT22;13866;50.748;12.630;2022-08-19T15:28:12;19.10;99.90
26107;DHT22;13866;50.748;12.630;2022-08-19T15:30:39;19.00;99.90
26107;DHT22;13866;50.748;12.630;2022-08-19T15:33:06;19.00;99.90